createdAt,value
2022-08-07T00:01:44.185Z,13.89
2022-08-07T00:04:04.638Z,13.94
2022-08-07T00:06:33.890Z,13.86
2022-08-07T00:09:16.198Z,13.89
2022-08-07T00:11:54.491Z,14.06
2022-08-07T00:14:30.427Z,14.02
2022-08-07T00:17:02.554Z,14.02
2022-08-07T00:19:56.016Z,14.14
2022-08-07T00:22:34.547Z,14.01
2022-08-07T00:25:11.092Z,13.77
2022-08-07T00:27:52.579Z,13.74
2022-08-07T00:30:28.055Z,13.84
2022-08-07T00:32:57.316Z,13.78
2022-08-07T00:35:25.482Z,13.77
2022-08-07T00:37:55.119Z,13.73
2022-08-07T00:40:40.024Z,13.66
2022-08-07T00:43:59.639Z,13.64
2022-08-07T00:46:01.965Z,13.75
2022-08-07T00:48:32.012Z,13.74
2022-08-07T00:51:00.764Z,13.66
2022-08-07T00:53:39.367Z,13.60
2022-08-07T00:56:15.735Z,13.68
2022-08-07T00:58:47.019Z,13.60
2022-08-07T01:01:16.132Z,13.76
2022-08-07T01:03:55.802Z,13.86
2022-08-07T01:06:28.578Z,13.73
2022-08-07T01:08:58.456Z,13.61
2022-08-07T01:12:23.722Z,13.75
2022-08-07T01:14:16.769Z,13.71
2022-08-07T01:16:47.179Z,13.66
2022-08-07T01:19:26.698Z,13.59
2022-08-07T01:21:55.661Z,13.63
2022-08-07T01:24:30.678Z,13.47
2022-08-07T01:26:59.974Z,13.52
2022-08-07T01:29:31.440Z,13.52
2022-08-07T01:32:05.247Z,13.59
2022-08-07T01:34:33.407Z,13.57
2022-08-07T01:37:09.866Z,13.44
2022-08-07T01:39:46.406Z,13.36
2022-08-07T01:42:39.753Z,13.44
2022-08-07T01:45:18.187Z,13.47
2022-08-07T01:48:17.797Z,13.45
2022-08-07T01:50:46.005Z,13.38
2022-08-07T01:53:21.064Z,13.38
2022-08-07T01:56:02.491Z,13.34
2022-08-07T01:58:37.481Z,13.32
2022-08-07T02:01:25.608Z,13.27
2022-08-07T02:04:14.018Z,13.26
2022-08-07T02:06:49.018Z,13.22
2022-08-07T02:09:43.616Z,13.34
2022-08-07T02:12:18.209Z,13.26
2022-08-07T02:15:00.657Z,13.21
2022-08-07T02:17:49.533Z,13.23
2022-08-07T02:20:25.137Z,13.20
2022-08-07T02:23:00.100Z,13.22
2022-08-07T02:26:10.351Z,13.29
2022-08-07T02:28:27.193Z,13.23
2022-08-07T02:31:10.290Z,13.20
2022-08-07T02:34:04.006Z,13.32
2022-08-07T02:36:45.347Z,13.19
2022-08-07T02:39:43.418Z,13.21
2022-08-07T02:42:10.319Z,13.43
2022-08-07T02:44:48.183Z,13.44
2022-08-07T02:47:23.483Z,13.34
2022-08-07T02:49:57.665Z,13.26
2022-08-07T02:52:33.552Z,13.18
2022-08-07T02:55:27.324Z,13.10
2022-08-07T02:57:59.765Z,13.13
2022-08-07T03:00:30.382Z,13.23
2022-08-07T03:03:00.270Z,13.15
2022-08-07T03:05:37.102Z,13.02
2022-08-07T03:08:10.182Z,12.94
2022-08-07T03:10:46.448Z,12.82
2022-08-07T03:13:20.171Z,12.75
2022-08-07T03:15:56.278Z,12.71
2022-08-07T03:18:34.263Z,12.75
2022-08-07T03:21:08.829Z,12.73
2022-08-07T03:24:21.219Z,12.76
2022-08-07T03:26:33.818Z,12.69
2022-08-07T03:29:11.101Z,12.72
2022-08-07T03:31:46.202Z,12.70
2022-08-07T03:34:18.712Z,12.71
2022-08-07T03:36:55.123Z,12.69
2022-08-07T03:39:59.193Z,12.84
2022-08-07T03:42:17.285Z,12.73
2022-08-07T03:44:47.326Z,12.69
2022-08-07T03:47:25.352Z,12.65
2022-08-07T03:49:57.273Z,12.74
2022-08-07T03:52:28.654Z,12.73
2022-08-07T03:55:06.610Z,12.79
2022-08-07T03:58:08.721Z,12.72
2022-08-07T04:00:33.673Z,12.58
2022-08-07T04:03:03.879Z,12.71
2022-08-07T04:05:39.709Z,12.67
2022-08-07T04:08:16.045Z,12.68
2022-08-07T04:10:54.116Z,12.64
2022-08-07T04:14:09.229Z,12.58
2022-08-07T04:16:30.964Z,12.53
2022-08-07T04:19:04.427Z,12.63
2022-08-07T04:21:58.896Z,12.74
2022-08-07T04:24:33.992Z,12.65
2022-08-07T04:27:20.483Z,12.73
2022-08-07T04:30:01.797Z,12.78
2022-08-07T04:32:58.119Z,12.81
2022-08-07T04:35:34.999Z,12.77
2022-08-07T04:38:08.212Z,12.81
2022-08-07T04:40:59.754Z,12.76
2022-08-07T04:44:11.763Z,12.88
2022-08-07T04:47:04.787Z,12.91
2022-08-07T04:50:10.860Z,12.94
2022-08-07T04:52:58.832Z,12.83
2022-08-07T04:58:10.346Z,12.79
2022-08-07T04:59:17.167Z,12.88
2022-08-07T05:02:16.808Z,13.02
2022-08-07T05:05:11.879Z,13.07
2022-08-07T05:08:07.815Z,13.80
2022-08-07T05:10:58.437Z,15.06
2022-08-07T05:14:54.219Z,15.87
2022-08-07T05:16:29.546Z,16.35
2022-08-07T05:19:00.929Z,16.56
2022-08-07T05:21:59.445Z,16.90
2022-08-07T05:24:30.630Z,17.11
2022-08-07T05:27:21.801Z,17.22
2022-08-07T05:29:58.583Z,17.44
2022-08-07T05:32:26.443Z,17.26
2022-08-07T05:34:54.491Z,17.41
2022-08-07T05:37:25.471Z,17.38
2022-08-07T05:40:13.645Z,17.61
2022-08-07T05:42:55.958Z,17.80
2022-08-07T05:45:46.943Z,18.05
2022-08-07T05:48:13.897Z,18.18
2022-08-07T05:50:45.010Z,18.72
2022-08-07T05:54:12.940Z,19.03
2022-08-07T05:56:05.945Z,18.79
2022-08-07T05:58:39.725Z,19.00
2022-08-07T06:01:12.214Z,19.18
2022-08-07T06:03:58.480Z,19.80
2022-08-07T06:06:33.476Z,20.29
2022-08-07T06:09:05.172Z,20.12
2022-08-07T06:11:36.343Z,19.96
2022-08-07T06:14:11.676Z,20.04
2022-08-07T06:16:50.262Z,19.88
2022-08-07T06:19:57.721Z,19.54
2022-08-07T06:22:23.752Z,19.57
2022-08-07T06:25:10.478Z,19.85
2022-08-07T06:27:59.734Z,20.03
2022-08-07T06:30:36.235Z,20.61
2022-08-07T06:33:25.180Z,20.61
2022-08-07T06:36:12.796Z,20.71
2022-08-07T06:38:59.689Z,20.71
2022-08-07T06:42:00.474Z,20.88
2022-08-07T06:44:51.156Z,21.54
2022-08-07T06:47:24.129Z,21.01
2022-08-07T06:49:58.476Z,20.95
2022-08-07T06:52:36.681Z,21.19
2022-08-07T06:55:32.876Z,21.25
2022-08-07T06:58:13.939Z,20.52
2022-08-07T07:00:55.267Z,20.77
2022-08-07T07:03:40.124Z,21.23
2022-08-07T07:06:11.536Z,21.19
2022-08-07T07:08:39.915Z,21.39
2022-08-07T07:12:08.991Z,22.14
2022-08-07T07:14:02.795Z,21.82
2022-08-07T07:16:45.341Z,21.20
2022-08-07T07:19:55.225Z,21.21
2022-08-07T07:22:36.590Z,21.79
2022-08-07T07:26:34.227Z,21.95
2022-08-07T07:28:42.549Z,21.85
2022-08-07T07:31:08.703Z,21.71
2022-08-07T07:33:38.329Z,21.68
2022-08-07T07:36:12.738Z,22.01
2022-08-07T07:38:45.955Z,22.35
2022-08-07T07:41:16.615Z,22.75
2022-08-07T07:43:47.670Z,22.89
2022-08-07T07:46:53.862Z,23.44
2022-08-07T07:50:34.218Z,23.20
2022-08-07T07:52:15.687Z,23.51
2022-08-07T07:54:51.481Z,23.74
2022-08-07T07:57:43.786Z,24.37
2022-08-07T08:00:20.728Z,24.26
2022-08-07T08:03:16.343Z,23.25
2022-08-07T08:05:54.034Z,23.25
2022-08-07T08:08:35.637Z,23.16
2022-08-07T08:11:08.215Z,23.14
2022-08-07T08:13:53.081Z,23.13
2022-08-07T08:16:35.210Z,23.12
2022-08-07T08:19:17.259Z,22.95
2022-08-07T08:22:15.939Z,23.33
2022-08-07T08:25:09.396Z,24.11
2022-08-07T08:27:57.252Z,23.42
2022-08-07T08:30:31.994Z,23.32
2022-08-07T08:33:05.879Z,22.76
2022-08-07T08:35:50.000Z,23.24
2022-08-07T08:38:29.996Z,23.43
2022-08-07T08:41:17.453Z,23.63
2022-08-07T08:43:59.129Z,24.02
2022-08-07T08:46:41.195Z,23.75
2022-08-07T08:49:33.173Z,23.42
2022-08-07T08:52:14.293Z,23.52
2022-08-07T08:54:56.538Z,24.03
2022-08-07T08:57:45.134Z,23.74
2022-08-07T09:00:13.380Z,22.86
2022-08-07T09:03:00.811Z,22.04
2022-08-07T09:05:37.144Z,21.77
2022-08-07T09:08:35.765Z,21.66
2022-08-07T09:11:25.025Z,21.49
2022-08-07T09:14:12.303Z,21.29
2022-08-07T09:17:33.983Z,21.09
2022-08-07T09:20:37.250Z,20.69
2022-08-07T09:24:35.085Z,21.09
2022-08-07T09:26:47.941Z,20.87
2022-08-07T09:30:03.930Z,20.82
2022-08-07T09:32:57.829Z,20.95
2022-08-07T09:36:05.063Z,20.73
2022-08-07T09:38:36.044Z,20.89
2022-08-07T09:41:27.950Z,21.08
2022-08-07T09:44:19.398Z,21.18
2022-08-07T09:47:52.378Z,20.93
2022-08-07T09:50:31.526Z,20.84
2022-08-07T09:53:04.869Z,21.20
2022-08-07T09:56:37.398Z,21.44
2022-08-07T09:59:07.526Z,21.59
2022-08-07T10:02:14.743Z,21.62
2022-08-07T10:05:17.912Z,21.71
2022-08-07T10:07:59.208Z,21.51
2022-08-07T10:10:30.018Z,21.42
2022-08-07T10:13:54.697Z,21.60
2022-08-07T10:16:48.610Z,21.33
2022-08-07T10:19:37.743Z,21.58
2022-08-07T10:22:16.119Z,21.56
2022-08-07T10:24:49.963Z,21.54
2022-08-07T10:28:00.120Z,21.58
2022-08-07T10:31:01.785Z,21.58
2022-08-07T10:34:14.116Z,21.91
2022-08-07T10:36:46.209Z,22.07
2022-08-07T10:40:02.564Z,22.02
2022-08-07T10:42:41.199Z,22.03
2022-08-07T10:45:57.535Z,22.15
2022-08-07T10:48:55.351Z,22.05
2022-08-07T10:52:12.981Z,22.07
2022-08-07T10:55:01.630Z,22.09
2022-08-07T10:57:56.105Z,22.17
2022-08-07T11:00:39.127Z,22.43
2022-08-07T11:03:24.029Z,22.69
2022-08-07T11:06:29.738Z,22.73
2022-08-07T11:09:11.042Z,22.58
2022-08-07T11:12:11.785Z,22.54
2022-08-07T11:15:00.162Z,22.85
2022-08-07T11:17:46.491Z,22.90
2022-08-07T11:20:25.246Z,22.77
2022-08-07T11:23:04.069Z,22.84
2022-08-07T11:25:42.583Z,22.76
2022-08-07T11:28:34.235Z,22.68
2022-08-07T11:31:25.305Z,22.79
2022-08-07T11:34:10.304Z,22.78
2022-08-07T11:36:56.712Z,22.82
2022-08-07T11:40:05.750Z,22.66
2022-08-07T11:42:45.013Z,23.00
2022-08-07T11:46:07.374Z,22.88
2022-08-07T11:48:40.734Z,22.72
2022-08-07T11:51:41.453Z,22.56
2022-08-07T11:54:58.237Z,22.70
2022-08-07T11:57:59.861Z,22.91
2022-08-07T12:01:11.429Z,23.08
2022-08-07T12:04:25.509Z,22.80
2022-08-07T12:07:20.406Z,23.10
2022-08-07T12:10:05.820Z,23.26
2022-08-07T12:12:45.309Z,23.18
2022-08-07T12:15:35.873Z,23.03
2022-08-07T12:18:45.203Z,23.15
2022-08-07T12:22:36.615Z,23.21
2022-08-07T12:25:07.487Z,23.57
2022-08-07T12:28:05.704Z,23.47
2022-08-07T12:30:33.515Z,23.51
2022-08-07T12:33:02.086Z,23.45
2022-08-07T12:35:48.719Z,23.56
2022-08-07T12:38:38.500Z,23.29
2022-08-07T12:41:11.590Z,23.37
2022-08-07T12:44:03.823Z,23.55
2022-08-07T12:47:21.408Z,23.51
2022-08-07T12:50:38.161Z,23.43
2022-08-07T12:52:54.429Z,23.47
2022-08-07T12:55:40.975Z,23.67
2022-08-07T12:58:28.147Z,23.45
2022-08-07T13:01:32.144Z,23.38
2022-08-07T13:04:31.860Z,23.65
2022-08-07T13:08:12.681Z,23.78
2022-08-07T13:10:54.811Z,23.92
2022-08-07T13:13:47.508Z,23.76
2022-08-07T13:16:46.681Z,23.78
2022-08-07T13:19:46.220Z,23.52
2022-08-07T13:22:45.543Z,23.99
2022-08-07T13:25:45.785Z,24.11
2022-08-07T13:28:30.588Z,24.03
2022-08-07T13:31:32.176Z,23.91
2022-08-07T13:34:33.451Z,24.00
2022-08-07T13:37:19.823Z,23.84
2022-08-07T13:40:36.274Z,24.03
2022-08-07T13:42:54.142Z,23.98
2022-08-07T13:46:20.838Z,23.97
2022-08-07T13:48:27.759Z,24.04
2022-08-07T13:51:28.191Z,23.90
2022-08-07T13:54:03.076Z,24.03
2022-08-07T13:56:36.038Z,24.55
2022-08-07T13:59:25.500Z,24.50
2022-08-07T14:02:05.257Z,24.14
2022-08-07T14:04:47.501Z,24.19
2022-08-07T14:07:31.134Z,24.24
2022-08-07T14:10:16.344Z,24.20
2022-08-07T14:12:58.830Z,24.20
2022-08-07T14:15:35.020Z,24.19
2022-08-07T14:18:24.138Z,24.29
2022-08-07T14:21:07.854Z,24.07
2022-08-07T14:24:00.696Z,24.17
2022-08-07T14:26:36.278Z,24.12
2022-08-07T14:30:04.819Z,24.24
2022-08-07T14:31:59.293Z,24.35
2022-08-07T14:34:30.866Z,24.71
2022-08-07T14:37:03.417Z,24.83
2022-08-07T14:40:15.517Z,24.66
2022-08-07T14:42:31.344Z,24.54
2022-08-07T14:45:22.021Z,24.59
2022-08-07T14:47:58.610Z,24.54
2022-08-07T14:50:28.793Z,24.42
2022-08-07T14:55:55.597Z,24.87
2022-08-07T14:58:33.776Z,24.78
2022-08-07T15:01:21.319Z,24.73
2022-08-07T15:03:54.624Z,24.81
2022-08-07T15:06:32.553Z,25.00
2022-08-07T15:09:59.154Z,24.68
2022-08-07T15:12:25.668Z,24.61
2022-08-07T15:15:07.845Z,24.45
2022-08-07T15:17:55.546Z,24.42
2022-08-07T15:20:32.822Z,24.26
2022-08-07T15:23:02.815Z,24.43
2022-08-07T15:25:58.447Z,24.54
2022-08-07T15:28:34.944Z,24.25
2022-08-07T15:31:09.760Z,24.01
2022-08-07T15:33:42.700Z,24.14
2022-08-07T15:36:10.584Z,24.21
2022-08-07T15:38:58.567Z,24.28
2022-08-07T15:42:44.418Z,24.34
2022-08-07T15:44:20.871Z,24.51
2022-08-07T15:47:08.910Z,24.41
2022-08-07T15:50:06.077Z,24.40
2022-08-07T15:52:38.000Z,24.38
2022-08-07T15:55:11.387Z,24.22
2022-08-07T15:57:48.704Z,24.15
2022-08-07T16:00:31.848Z,24.14
2022-08-07T16:03:20.855Z,24.09
2022-08-07T16:05:57.902Z,24.09
2022-08-07T16:08:37.931Z,24.24
2022-08-07T16:11:28.655Z,24.15
2022-08-07T16:14:06.216Z,24.00
2022-08-07T16:16:57.046Z,24.00
2022-08-07T16:19:58.831Z,24.20
2022-08-07T16:22:33.805Z,24.12
2022-08-07T16:25:23.281Z,23.84
2022-08-07T16:29:18.427Z,23.76
2022-08-07T16:31:52.026Z,23.71
2022-08-07T16:34:55.549Z,23.55
2022-08-07T16:38:03.626Z,23.62
2022-08-07T16:40:31.950Z,23.73
2022-08-07T16:43:17.717Z,23.81
2022-08-07T16:47:08.986Z,23.49
2022-08-07T16:50:28.021Z,23.48
2022-08-07T16:52:52.609Z,23.35
2022-08-07T16:55:52.226Z,23.26
2022-08-07T16:59:11.000Z,23.32
2022-08-07T17:01:49.523Z,23.32
2022-08-07T17:04:50.692Z,23.16
2022-08-07T17:07:55.175Z,23.11
2022-08-07T17:10:56.130Z,22.80
2022-08-07T17:14:02.190Z,22.80
2022-08-07T17:16:33.514Z,22.59
2022-08-07T17:19:04.710Z,22.44
2022-08-07T17:21:50.781Z,22.67
2022-08-07T17:24:31.866Z,22.71
2022-08-07T17:26:58.606Z,22.78
2022-08-07T17:30:14.915Z,22.98
2022-08-07T17:33:02.131Z,23.27
2022-08-07T17:35:55.038Z,22.83
2022-08-07T17:38:39.727Z,22.56
2022-08-07T17:42:04.633Z,22.41
2022-08-07T17:44:33.967Z,22.29
2022-08-07T17:47:16.928Z,22.56
2022-08-07T17:49:58.573Z,22.47
2022-08-07T17:52:39.768Z,22.37
2022-08-07T17:55:16.473Z,22.29
2022-08-07T17:58:32.102Z,22.16
2022-08-07T18:01:18.065Z,22.35
2022-08-07T18:04:30.773Z,22.77
2022-08-07T18:07:28.477Z,22.95
2022-08-07T18:10:32.509Z,22.90
2022-08-07T18:13:23.123Z,22.84
2022-08-07T18:16:09.457Z,22.85
2022-08-07T18:21:08.043Z,22.84
2022-08-07T18:21:55.085Z,22.71
2022-08-07T18:25:19.171Z,22.00
2022-08-07T18:28:21.539Z,21.28
2022-08-07T18:31:18.458Z,21.17
2022-08-07T18:34:40.873Z,20.90
2022-08-07T18:38:55.882Z,20.76
2022-08-07T18:40:43.878Z,20.59
2022-08-07T18:43:48.942Z,20.64
2022-08-07T18:46:25.764Z,20.36
2022-08-07T18:50:31.321Z,20.21
2022-08-07T18:52:56.473Z,20.11
2022-08-07T18:55:59.053Z,20.02
2022-08-07T18:59:09.753Z,19.95
2022-08-07T19:05:20.846Z,19.78
2022-08-07T19:08:06.314Z,19.68
2022-08-07T19:10:51.733Z,19.72
2022-08-07T19:13:45.991Z,19.54
2022-08-07T19:17:00.545Z,19.55
2022-08-07T19:19:56.344Z,19.42
2022-08-07T19:22:44.854Z,19.38
2022-08-07T19:26:23.199Z,19.37
2022-08-07T19:28:58.136Z,19.19
2022-08-07T19:31:40.461Z,19.10
2022-08-07T19:34:04.963Z,18.89
2022-08-07T19:36:39.424Z,18.77
2022-08-07T19:39:10.413Z,18.84
2022-08-07T19:42:06.194Z,18.80
2022-08-07T19:44:41.032Z,18.81
2022-08-07T19:47:14.615Z,18.70
2022-08-07T19:49:57.490Z,18.65
2022-08-07T19:52:30.912Z,18.56
2022-08-07T19:54:59.813Z,18.54
2022-08-07T19:58:00.224Z,18.33
2022-08-07T20:00:34.677Z,18.31
2022-08-07T20:03:05.819Z,18.22
2022-08-07T20:06:02.319Z,18.28
2022-08-07T20:08:34.283Z,18.22
2022-08-07T20:11:10.632Z,18.18
2022-08-07T20:13:46.713Z,18.04
2022-08-07T20:16:36.327Z,18.02
2022-08-07T20:19:10.891Z,17.84
2022-08-07T20:21:47.748Z,17.85
2022-08-07T20:24:28.526Z,17.81
2022-08-07T20:26:58.990Z,17.82
2022-08-07T20:29:47.631Z,17.94
2022-08-07T20:32:25.937Z,17.85
2022-08-07T20:35:00.073Z,17.91
2022-08-07T20:37:37.032Z,17.89
2022-08-07T20:40:32.985Z,17.70
2022-08-07T20:43:03.142Z,17.65
2022-08-07T20:46:27.745Z,17.57
2022-08-07T20:48:30.503Z,17.59
2022-08-07T20:51:00.348Z,17.58
2022-08-07T20:54:04.820Z,17.52
2022-08-07T20:56:16.816Z,17.50
2022-08-07T20:58:56.679Z,17.34
2022-08-07T21:01:26.877Z,17.37
2022-08-07T21:04:22.064Z,17.25
2022-08-07T21:06:57.451Z,17.30
2022-08-07T21:09:51.788Z,17.21
2022-08-07T21:12:30.700Z,17.22
2022-08-07T21:15:03.159Z,17.22
2022-08-07T21:18:20.848Z,17.08
2022-08-07T21:20:30.287Z,17.10
2022-08-07T21:23:08.744Z,17.12
2022-08-07T21:25:56.338Z,17.09
2022-08-07T21:28:48.074Z,16.99
2022-08-07T21:32:43.124Z,16.89
2022-08-07T21:34:49.412Z,16.98
2022-08-07T21:37:58.832Z,16.88
2022-08-07T21:40:35.965Z,16.78
2022-08-07T21:43:13.270Z,16.70
2022-08-07T21:46:08.814Z,16.68
2022-08-07T21:48:56.353Z,16.65
2022-08-07T21:51:51.080Z,16.82
2022-08-07T21:54:45.982Z,16.83
2022-08-07T21:57:51.859Z,16.68
2022-08-07T22:00:25.436Z,16.62
2022-08-07T22:03:17.397Z,16.65
2022-08-07T22:06:30.307Z,16.62
2022-08-07T22:09:12.851Z,16.42
2022-08-07T22:12:04.925Z,16.48
2022-08-07T22:14:44.181Z,16.40
2022-08-07T22:17:36.054Z,16.57
2022-08-07T22:20:23.053Z,16.42
2022-08-07T22:22:57.224Z,16.31
2022-08-07T22:25:37.126Z,16.30
2022-08-07T22:28:32.198Z,16.24
2022-08-07T22:31:45.301Z,16.12
2022-08-07T22:34:36.978Z,16.00
2022-08-07T22:37:13.389Z,15.85
2022-08-07T22:40:04.792Z,15.86
2022-08-07T22:42:35.047Z,15.85
2022-08-07T22:45:10.942Z,15.90
2022-08-07T22:48:31.445Z,15.91
2022-08-07T22:51:21.817Z,15.73
2022-08-07T22:54:16.143Z,15.85
2022-08-07T22:57:21.140Z,15.69
2022-08-07T23:00:04.232Z,15.68
2022-08-07T23:02:43.195Z,15.59
2022-08-07T23:06:09.553Z,15.58
2022-08-07T23:08:58.662Z,15.56
2022-08-07T23:12:32.911Z,15.62
2022-08-07T23:15:10.917Z,15.74
2022-08-07T23:18:01.214Z,15.73
2022-08-07T23:20:40.403Z,15.56
2022-08-07T23:24:07.025Z,15.61
2022-08-07T23:26:12.739Z,15.50
2022-08-07T23:29:02.717Z,15.44
2022-08-07T23:34:18.823Z,15.41
2022-08-07T23:35:22.706Z,15.25
2022-08-07T23:38:06.562Z,15.21
2022-08-07T23:40:39.833Z,15.12
2022-08-07T23:43:42.798Z,15.12
2022-08-07T23:46:30.900Z,15.03
2022-08-07T23:49:42.064Z,15.06
2022-08-07T23:53:05.979Z,15.08
2022-08-07T23:56:02.528Z,14.99
2022-08-07T23:58:42.276Z,15.09
